sensor_id;sensor_type;location;lat;lon;timestamp;pressure;altitude;pressure_sealevel;temperature;humidity
57990;BME280;58373;51.824;5.564;2023-09-19T00:00:26;100673.03;;;14.77;98.67
57990;BME280;58373;51.824;5.564;2023-09-19T00:02:56;100677.09;;;14.71;98.16
57990;BME280;58373;51.824;5.564;2023-09-19T00:05:24;100668.59;;;14.69;98.39
57990;BME280;58373;51.824;5.564;2023-09-19T00:07:52;100683.44;;;14.69;98.40
57990;BME280;58373;51.824;5.564;2023-09-19T00:10:23;100678.34;;;14.67;98.56
57990;BME280;58373;51.824;5.564;2023-09-19T00:12:49;100677.72;;;14.65;98.53
57990;BME280;58373;51.824;5.564;2023-09-19T00:15:14;100688.31;;;14.64;98.64
57990;BME280;58373;51.824;5.564;2023-09-19T00:17:42;100690.09;;;14.63;98.83
57990;BME280;58373;51.824;5.564;2023-09-19T00:20:08;100690.91;;;14.64;99.12
57990;BME280;58373;51.824;5.564;2023-09-19T00:22:40;100694.50;;;14.63;98.87
57990;BME280;58373;51.824;5.564;2023-09-19T00:25:06;100700.53;;;14.63;99.30
57990;BME280;58373;51.824;5.564;2023-09-19T00:27:32;100697.94;;;14.63;99.07
57990;BME280;58373;51.824;5.564;2023-09-19T00:29:58;100696.97;;;14.64;99.41
57990;BME280;58373;51.824;5.564;2023-09-19T00:32:23;100703.00;;;14.65;99.84
57990;BME280;58373;51.824;5.564;2023-09-19T00:34:48;100699.41;;;14.66;99.48
57990;BME280;58373;51.824;5.564;2023-09-19T00:37:14;100706.59;;;14.64;99.45
57990;BME280;58373;51.824;5.564;2023-09-19T00:39:39;100702.78;;;14.58;99.34
57990;BME280;58373;51.824;5.564;2023-09-19T00:42:06;100714.88;;;14.59;99.46
57990;BME280;58373;51.824;5.564;2023-09-19T00:44:31;100704.72;;;14.56;99.62
57990;BME280;58373;51.824;5.564;2023-09-19T00:46:56;100701.47;;;14.54;99.61
57990;BME280;58373;51.824;5.564;2023-09-19T00:49:21;100710.25;;;14.53;99.54
57990;BME280;58373;51.824;5.564;2023-09-19T00:51:47;100711.91;;;14.54;99.65
57990;BME280;58373;51.824;5.564;2023-09-19T00:54:13;100719.38;;;14.49;99.69
57990;BME280;58373;51.824;5.564;2023-09-19T00:56:43;100715.25;;;14.46;99.89
57990;BME280;58373;51.824;5.564;2023-09-19T00:59:08;100724.06;;;14.45;99.69
57990;BME280;58373;51.824;5.564;2023-09-19T01:01:33;100719.94;;;14.43;99.92
57990;BME280;58373;51.824;5.564;2023-09-19T01:03:59;100722.88;;;14.40;99.63
57990;BME280;58373;51.824;5.564;2023-09-19T01:06:24;100725.50;;;14.40;99.65
57990;BME280;58373;51.824;5.564;2023-09-19T01:08:51;100722.19;;;14.38;99.78
57990;BME280;58373;51.824;5.564;2023-09-19T01:11:28;100732.63;;;14.38;99.49
57990;BME280;58373;51.824;5.564;2023-09-19T01:16:28;100728.53;;;14.35;99.57
57990;BME280;58373;51.824;5.564;2023-09-19T01:21:32;100728.94;;;14.22;99.31
57990;BME280;58373;51.824;5.564;2023-09-19T01:24:16;100741.31;;;14.20;99.15
57990;BME280;58373;51.824;5.564;2023-09-19T01:32:04;100737.66;;;14.13;99.14
57990;BME280;58373;51.824;5.564;2023-09-19T01:34:50;100750.69;;;14.13;99.02
57990;BME280;58373;51.824;5.564;2023-09-19T01:37:16;100755.25;;;14.11;98.98
57990;BME280;58373;51.824;5.564;2023-09-19T01:39:45;100759.13;;;14.07;98.94
57990;BME280;58373;51.824;5.564;2023-09-19T01:42:22;100762.72;;;14.06;98.96
57990;BME280;58373;51.824;5.564;2023-09-19T01:44:51;100756.81;;;14.04;99.01
57990;BME280;58373;51.824;5.564;2023-09-19T01:47:28;100759.88;;;13.99;99.22
57990;BME280;58373;51.824;5.564;2023-09-19T01:50:02;100755.75;;;13.97;99.56
57990;BME280;58373;51.824;5.564;2023-09-19T01:52:31;100756.06;;;13.94;98.99
57990;BME280;58373;51.824;5.564;2023-09-19T01:55:02;100756.34;;;13.91;99.04
57990;BME280;58373;51.824;5.564;2023-09-19T01:57:36;100758.97;;;13.91;99.11
57990;BME280;58373;51.824;5.564;2023-09-19T02:00:09;100756.53;;;13.89;98.91
57990;BME280;58373;51.824;5.564;2023-09-19T02:02:37;100757.22;;;13.81;98.92
57990;BME280;58373;51.824;5.564;2023-09-19T02:05:03;100750.38;;;13.80;98.68
57990;BME280;58373;51.824;5.564;2023-09-19T02:07:29;100757.81;;;13.75;98.28
57990;BME280;58373;51.824;5.564;2023-09-19T02:09:56;100758.41;;;13.69;98.48
57990;BME280;58373;51.824;5.564;2023-09-19T02:12:21;100765.72;;;13.66;98.33
57990;BME280;58373;51.824;5.564;2023-09-19T02:14:47;100769.75;;;13.60;98.12
57990;BME280;58373;51.824;5.564;2023-09-19T02:17:12;100763.72;;;13.60;98.28
57990;BME280;58373;51.824;5.564;2023-09-19T02:19:39;100770.31;;;13.54;98.00
57990;BME280;58373;51.824;5.564;2023-09-19T02:22:05;100761.00;;;13.51;98.35
57990;BME280;58373;51.824;5.564;2023-09-19T02:24:32;100767.59;;;13.46;98.21
57990;BME280;58373;51.824;5.564;2023-09-19T02:26:57;100766.94;;;13.44;97.98
57990;BME280;58373;51.824;5.564;2023-09-19T02:29:24;100766.56;;;13.39;97.88
57990;BME280;58373;51.824;5.564;2023-09-19T02:31:49;100765.19;;;13.35;97.38
57990;BME280;58373;51.824;5.564;2023-09-19T02:34:14;100763.72;;;13.32;97.55
57990;BME280;58373;51.824;5.564;2023-09-19T02:36:41;100767.72;;;13.26;97.50
57990;BME280;58373;51.824;5.564;2023-09-19T02:39:09;100762.78;;;13.23;97.40
57990;BME280;58373;51.824;5.564;2023-09-19T02:41:36;100771.56;;;13.22;97.34
57990;BME280;58373;51.824;5.564;2023-09-19T02:44:01;100766.63;;;13.19;96.81
57990;BME280;58373;51.824;5.564;2023-09-19T02:46:26;100765.78;;;13.19;97.35
57990;BME280;58373;51.824;5.564;2023-09-19T02:48:52;100772.09;;;13.16;96.78
57990;BME280;58373;51.824;5.564;2023-09-19T02:51:17;100776.50;;;13.16;96.74
57990;BME280;58373;51.824;5.564;2023-09-19T02:53:42;100775.94;;;13.12;96.80
57990;BME280;58373;51.824;5.564;2023-09-19T02:56:07;100776.25;;;13.09;96.60
57990;BME280;58373;51.824;5.564;2023-09-19T02:58:34;100778.44;;;13.04;96.05
57990;BME280;58373;51.824;5.564;2023-09-19T03:01:07;100775.19;;;13.02;96.45
57990;BME280;58373;51.824;5.564;2023-09-19T03:03:33;100773.81;;;12.98;96.22
57990;BME280;58373;51.824;5.564;2023-09-19T03:05:58;100778.47;;;12.94;95.94
57990;BME280;58373;51.824;5.564;2023-09-19T03:08:23;100781.22;;;12.93;96.14
57990;BME280;58373;51.824;5.564;2023-09-19T03:10:49;100782.19;;;12.92;95.68
57990;BME280;58373;51.824;5.564;2023-09-19T03:13:15;100787.66;;;12.89;95.64
57990;BME280;58373;51.824;5.564;2023-09-19T03:15:43;100792.22;;;12.87;95.19
57990;BME280;58373;51.824;5.564;2023-09-19T03:18:13;100787.25;;;12.84;95.29
57990;BME280;58373;51.824;5.564;2023-09-19T03:20:38;100784.00;;;12.82;95.47
57990;BME280;58373;51.824;5.564;2023-09-19T03:23:03;100784.00;;;12.82;95.64
57990;BME280;58373;51.824;5.564;2023-09-19T03:25:30;100779.75;;;12.81;94.98
57990;BME280;58373;51.824;5.564;2023-09-19T03:27:56;100779.06;;;12.79;94.56
57990;BME280;58373;51.824;5.564;2023-09-19T03:30:22;100772.63;;;12.73;94.07
57990;BME280;58373;51.824;5.564;2023-09-19T03:32:48;100771.53;;;12.75;94.17
57990;BME280;58373;51.824;5.564;2023-09-19T03:35:14;100775.22;;;12.73;94.07
57990;BME280;58373;51.824;5.564;2023-09-19T03:37:40;100776.06;;;12.73;94.07
57990;BME280;58373;51.824;5.564;2023-09-19T03:40:06;100776.06;;;12.73;93.72
57990;BME280;58373;51.824;5.564;2023-09-19T03:42:32;100775.38;;;12.71;93.54
57990;BME280;58373;51.824;5.564;2023-09-19T03:44:57;100774.41;;;12.72;92.98
57990;BME280;58373;51.824;5.564;2023-09-19T03:47:22;100777.16;;;12.71;93.49
57990;BME280;58373;51.824;5.564;2023-09-19T03:49:48;100776.34;;;12.70;93.08
57990;BME280;58373;51.824;5.564;2023-09-19T03:52:13;100777.31;;;12.69;93.19
57990;BME280;58373;51.824;5.564;2023-09-19T03:54:40;100770.47;;;12.68;93.32
57990;BME280;58373;51.824;5.564;2023-09-19T03:57:06;100768.13;;;12.65;92.47
57990;BME280;58373;51.824;5.564;2023-09-19T03:59:31;100761.28;;;12.64;92.53
57990;BME280;58373;51.824;5.564;2023-09-19T04:01:57;100762.25;;;12.63;92.49
57990;BME280;58373;51.824;5.564;2023-09-19T04:04:23;100759.94;;;12.60;92.43
57990;BME280;58373;51.824;5.564;2023-09-19T04:06:50;100764.31;;;12.60;92.39
57990;BME280;58373;51.824;5.564;2023-09-19T04:09:15;100755.00;;;12.57;92.35
57990;BME280;58373;51.824;5.564;2023-09-19T04:11:40;100765.41;;;12.57;91.85
57990;BME280;58373;51.824;5.564;2023-09-19T04:14:06;100764.16;;;12.61;92.24
57990;BME280;58373;51.824;5.564;2023-09-19T04:16:31;100781.69;;;12.59;91.76
57990;BME280;58373;51.824;5.564;2023-09-19T04:18:56;100774.88;;;12.58;91.69
57990;BME280;58373;51.824;5.564;2023-09-19T04:21:21;100790.63;;;12.57;91.71
57990;BME280;58373;51.824;5.564;2023-09-19T04:23:46;100793.91;;;12.59;91.68
57990;BME280;58373;51.824;5.564;2023-09-19T04:26:12;100810.63;;;12.56;91.72
57990;BME280;58373;51.824;5.564;2023-09-19T04:28:37;100815.81;;;12.56;91.86
57990;BME280;58373;51.824;5.564;2023-09-19T04:31:03;100821.03;;;12.56;91.79
57990;BME280;58373;51.824;5.564;2023-09-19T04:33:28;100835.94;;;12.54;91.51
57990;BME280;58373;51.824;5.564;2023-09-19T04:35:53;100829.75;;;12.55;91.83
57990;BME280;58373;51.824;5.564;2023-09-19T04:38:19;100831.44;;;12.56;91.53
57990;BME280;58373;51.824;5.564;2023-09-19T04:40:44;100834.97;;;12.55;91.31
57990;BME280;58373;51.824;5.564;2023-09-19T04:43:12;100841.84;;;12.56;91.52
57990;BME280;58373;51.824;5.564;2023-09-19T04:45:38;100836.06;;;12.53;91.41
57990;BME280;58373;51.824;5.564;2023-09-19T04:48:04;100838.81;;;12.51;91.80
57990;BME280;58373;51.824;5.564;2023-09-19T04:50:29;100842.25;;;12.52;91.49
57990;BME280;58373;51.824;5.564;2023-09-19T04:52:54;100842.34;;;12.50;91.84
57990;BME280;58373;51.824;5.564;2023-09-19T04:55:19;100848.41;;;12.51;91.84
57990;BME280;58373;51.824;5.564;2023-09-19T04:57:45;100854.69;;;12.48;91.83
57990;BME280;58373;51.824;5.564;2023-09-19T05:00:12;100849.50;;;12.48;91.93
57990;BME280;58373;51.824;5.564;2023-09-19T05:02:38;100849.50;;;12.48;91.95
57990;BME280;58373;51.824;5.564;2023-09-19T05:05:03;100853.72;;;12.49;91.78
57990;BME280;58373;51.824;5.564;2023-09-19T05:07:29;100852.75;;;12.50;91.90
57990;BME280;58373;51.824;5.564;2023-09-19T05:09:55;100848.53;;;12.49;92.08
57990;BME280;58373;51.824;5.564;2023-09-19T05:12:20;100848.28;;;12.52;92.15
57990;BME280;58373;51.824;5.564;2023-09-19T05:14:45;100849.22;;;12.51;92.23
57990;BME280;58373;51.824;5.564;2023-09-19T05:17:10;100849.09;;;12.53;91.87
57990;BME280;58373;51.824;5.564;2023-09-19T05:19:36;100845.66;;;12.52;92.39
57990;BME280;58373;51.824;5.564;2023-09-19T05:22:03;100847.97;;;12.55;92.38
57990;BME280;58373;51.824;5.564;2023-09-19T05:24:29;100842.78;;;12.55;92.56
57990;BME280;58373;51.824;5.564;2023-09-19T05:26:55;100841.84;;;12.56;92.64
57990;BME280;58373;51.824;5.564;2023-09-19T05:29:20;100846.06;;;12.57;92.45
57990;BME280;58373;51.824;5.564;2023-09-19T05:31:46;100838.28;;;12.57;92.55
57990;BME280;58373;51.824;5.564;2023-09-19T05:34:11;100847.72;;;12.58;92.33
57990;BME280;58373;51.824;5.564;2023-09-19T05:36:36;100851.97;;;12.59;92.55
57990;BME280;58373;51.824;5.564;2023-09-19T05:39:02;100851.00;;;12.60;92.75
57990;BME280;58373;51.824;5.564;2023-09-19T05:41:27;100849.75;;;12.64;92.43
57990;BME280;58373;51.824;5.564;2023-09-19T05:43:52;100857.44;;;12.66;92.74
57990;BME280;58373;51.824;5.564;2023-09-19T05:46:17;100846.19;;;12.65;92.99
57990;BME280;58373;51.824;5.564;2023-09-19T05:48:43;100853.84;;;12.67;93.08
57990;BME280;58373;51.824;5.564;2023-09-19T05:51:09;100845.13;;;12.68;92.69
57990;BME280;58373;51.824;5.564;2023-09-19T05:53:34;100851.25;;;12.67;92.79
57990;BME280;58373;51.824;5.564;2023-09-19T05:56:00;100847.72;;;12.68;92.91
57990;BME280;58373;51.824;5.564;2023-09-19T05:58:26;100849.50;;;12.67;93.00
57990;BME280;58373;51.824;5.564;2023-09-19T06:00:51;100850.31;;;12.68;93.53
57990;BME280;58373;51.824;5.564;2023-09-19T06:03:17;100849.22;;;12.70;93.74
57990;BME280;58373;51.824;5.564;2023-09-19T06:05:43;100850.84;;;12.71;93.73
57990;BME280;58373;51.824;5.564;2023-09-19T06:08:11;100842.63;;;12.76;93.38
57990;BME280;58373;51.824;5.564;2023-09-19T06:10:37;100847.97;;;12.74;94.17
57990;BME280;58373;51.824;5.564;2023-09-19T06:13:02;100847.03;;;12.75;94.11
57990;BME280;58373;51.824;5.564;2023-09-19T06:15:31;100841.53;;;12.79;94.10
57990;BME280;58373;51.824;5.564;2023-09-19T06:17:58;100855.22;;;12.81;94.44
57990;BME280;58373;51.824;5.564;2023-09-19T06:20:24;100858.38;;;12.84;94.14
57990;BME280;58373;51.824;5.564;2023-09-19T06:22:50;100858.50;;;12.83;94.58
57990;BME280;58373;51.824;5.564;2023-09-19T06:25:16;100860.16;;;12.84;94.79
57990;BME280;58373;51.824;5.564;2023-09-19T06:27:45;100866.72;;;12.88;94.57
57990;BME280;58373;51.824;5.564;2023-09-19T06:30:10;100868.38;;;12.89;94.83
57990;BME280;58373;51.824;5.564;2023-09-19T06:32:36;100868.09;;;12.92;94.94
57990;BME280;58373;51.824;5.564;2023-09-19T06:35:01;100879.84;;;12.96;94.53
57990;BME280;58373;51.824;5.564;2023-09-19T06:37:28;100884.81;;;12.99;94.85
57990;BME280;58373;51.824;5.564;2023-09-19T06:39:53;100877.41;;;13.04;94.85
57990;BME280;58373;51.824;5.564;2023-09-19T06:42:18;100880.00;;;13.04;94.64
57990;BME280;58373;51.824;5.564;2023-09-19T06:44:44;100877.09;;;13.07;94.81
57990;BME280;58373;51.824;5.564;2023-09-19T06:47:09;100877.09;;;13.07;95.47
57990;BME280;58373;51.824;5.564;2023-09-19T06:49:35;100871.63;;;13.10;95.17
57990;BME280;58373;51.824;5.564;2023-09-19T06:52:00;100869.69;;;13.12;95.26
57990;BME280;58373;51.824;5.564;2023-09-19T06:54:26;100867.78;;;13.14;95.24
57990;BME280;58373;51.824;5.564;2023-09-19T06:56:54;100867.50;;;13.17;95.27
57990;BME280;58373;51.824;5.564;2023-09-19T06:59:20;100867.22;;;13.20;95.52
57990;BME280;58373;51.824;5.564;2023-09-19T07:01:45;100869.28;;;13.26;95.07
57990;BME280;58373;51.824;5.564;2023-09-19T07:04:12;100871.19;;;13.24;95.37
57990;BME280;58373;51.824;5.564;2023-09-19T07:06:37;100878.75;;;13.27;95.39
57990;BME280;58373;51.824;5.564;2023-09-19T07:09:03;100880.13;;;13.32;95.63
57990;BME280;58373;51.824;5.564;2023-09-19T07:11:29;100876.25;;;13.36;95.40
57990;BME280;58373;51.824;5.564;2023-09-19T07:13:55;100877.59;;;13.40;95.43
57990;BME280;58373;51.824;5.564;2023-09-19T07:16:21;100881.84;;;13.41;95.52
57990;BME280;58373;51.824;5.564;2023-09-19T07:18:54;100864.97;;;13.45;95.68
57990;BME280;58373;51.824;5.564;2023-09-19T07:21:21;100882.94;;;13.48;95.68
57990;BME280;58373;51.824;5.564;2023-09-19T07:23:46;100882.78;;;13.59;94.92
57990;BME280;58373;51.824;5.564;2023-09-19T07:26:11;100890.59;;;13.59;95.14
57990;BME280;58373;51.824;5.564;2023-09-19T07:28:37;100893.19;;;13.59;95.29
57990;BME280;58373;51.824;5.564;2023-09-19T07:31:02;100888.34;;;13.64;95.19
57990;BME280;58373;51.824;5.564;2023-09-19T07:33:32;100887.09;;;13.68;95.10
57990;BME280;58373;51.824;5.564;2023-09-19T07:35:57;100888.75;;;13.69;95.31
57990;BME280;58373;51.824;5.564;2023-09-19T07:38:22;100891.75;;;13.74;95.32
57990;BME280;58373;51.824;5.564;2023-09-19T07:40:47;100878.28;;;13.79;95.23
57990;BME280;58373;51.824;5.564;2023-09-19T07:43:13;100881.50;;;13.91;94.57
57990;BME280;58373;51.824;5.564;2023-09-19T07:45:38;100890.16;;;13.91;94.22
57990;BME280;58373;51.824;5.564;2023-09-19T07:48:03;100893.88;;;13.89;94.79
57990;BME280;58373;51.824;5.564;2023-09-19T07:50:38;100897.69;;;13.94;94.79
57990;BME280;58373;51.824;5.564;2023-09-19T07:53:05;100885.88;;;14.00;95.08
57990;BME280;58373;51.824;5.564;2023-09-19T07:55:30;100907.63;;;14.08;94.84
57990;BME280;58373;51.824;5.564;2023-09-19T07:57:55;100900.03;;;14.15;94.97
57990;BME280;58373;51.824;5.564;2023-09-19T08:00:21;100903.84;;;14.21;95.07
57990;BME280;58373;51.824;5.564;2023-09-19T08:02:46;100901.34;;;14.29;95.03
57990;BME280;58373;51.824;5.564;2023-09-19T08:05:12;100893.91;;;14.34;94.82
57990;BME280;58373;51.824;5.564;2023-09-19T08:07:41;100904.41;;;14.42;94.41
57990;BME280;58373;51.824;5.564;2023-09-19T08:10:07;100902.03;;;14.49;93.83
57990;BME280;58373;51.824;5.564;2023-09-19T08:12:36;100900.41;;;14.48;94.18
57990;BME280;58373;51.824;5.564;2023-09-19T08:15:02;100899.00;;;14.53;94.13
57990;BME280;58373;51.824;5.564;2023-09-19T08:17:27;100897.59;;;14.59;93.61
57990;BME280;58373;51.824;5.564;2023-09-19T08:19:52;100895.34;;;14.64;93.39
57990;BME280;58373;51.824;5.564;2023-09-19T08:22:19;100894.09;;;14.68;93.44
57990;BME280;58373;51.824;5.564;2023-09-19T08:24:44;100904.88;;;14.73;93.05
57990;BME280;58373;51.824;5.564;2023-09-19T08:27:09;100902.63;;;14.78;93.04
57990;BME280;58373;51.824;5.564;2023-09-19T08:29:35;100910.56;;;14.86;92.87
57990;BME280;58373;51.824;5.564;2023-09-19T08:32:00;100899.94;;;14.88;93.06
57990;BME280;58373;51.824;5.564;2023-09-19T08:34:26;100912.09;;;14.97;92.89
57990;BME280;58373;51.824;5.564;2023-09-19T08:36:52;100913.59;;;15.00;92.72
57990;BME280;58373;51.824;5.564;2023-09-19T08:39:21;100917.53;;;15.04;93.17
57990;BME280;58373;51.824;5.564;2023-09-19T08:41:46;100906.97;;;15.13;91.81
57990;BME280;58373;51.824;5.564;2023-09-19T08:44:12;100914.22;;;15.20;91.87
57990;BME280;58373;51.824;5.564;2023-09-19T08:46:37;100909.50;;;15.23;92.26
57990;BME280;58373;51.824;5.564;2023-09-19T08:49:08;100905.16;;;15.32;92.06
57990;BME280;58373;51.824;5.564;2023-09-19T08:51:41;100900.59;;;15.34;91.57
57990;BME280;58373;51.824;5.564;2023-09-19T08:54:09;100906.03;;;15.40;91.58
57990;BME280;58373;51.824;5.564;2023-09-19T08:56:35;100912.13;;;15.49;91.18
57990;BME280;58373;51.824;5.564;2023-09-19T08:59:04;100909.78;;;15.64;90.06
57990;BME280;58373;51.824;5.564;2023-09-19T09:01:32;100906.03;;;15.66;90.86
57990;BME280;58373;51.824;5.564;2023-09-19T09:03:58;100895.44;;;15.76;90.25
57990;BME280;58373;51.824;5.564;2023-09-19T09:06:24;100904.00;;;15.86;89.72
57990;BME280;58373;51.824;5.564;2023-09-19T09:08:50;100900.56;;;15.94;89.27
57990;BME280;58373;51.824;5.564;2023-09-19T09:11:15;100893.06;;;15.99;88.20
57990;BME280;58373;51.824;5.564;2023-09-19T09:13:41;100896.03;;;16.04;88.11
57990;BME280;58373;51.824;5.564;2023-09-19T09:16:07;100892.66;;;16.12;87.39
57990;BME280;58373;51.824;5.564;2023-09-19T09:18:33;100883.81;;;16.13;86.95
57990;BME280;58373;51.824;5.564;2023-09-19T09:20:59;100890.97;;;16.11;86.52
57990;BME280;58373;51.824;5.564;2023-09-19T09:23:25;100895.72;;;16.07;86.52
57990;BME280;58373;51.824;5.564;2023-09-19T09:25:52;100889.34;;;16.10;86.36
57990;BME280;58373;51.824;5.564;2023-09-19T09:28:28;100892.66;;;16.12;86.23
57990;BME280;58373;51.824;5.564;2023-09-19T09:30:54;100884.63;;;16.13;86.42
57990;BME280;58373;51.824;5.564;2023-09-19T09:33:19;100882.66;;;16.15;85.63
57990;BME280;58373;51.824;5.564;2023-09-19T09:38:16;100887.41;;;16.28;85.53
57990;BME280;58373;51.824;5.564;2023-09-19T09:40:45;100890.72;;;16.38;85.15
57990;BME280;58373;51.824;5.564;2023-09-19T09:46:18;100887.47;;;16.61;84.19
57990;BME280;58373;51.824;5.564;2023-09-19T09:48:56;100879.63;;;16.69;83.49
57990;BME280;58373;51.824;5.564;2023-09-19T09:51:40;100887.81;;;16.74;83.09
57990;BME280;58373;51.824;5.564;2023-09-19T09:54:12;100885.22;;;16.82;82.63
57990;BME280;58373;51.824;5.564;2023-09-19T09:56:53;100891.44;;;16.89;82.00
57990;BME280;58373;51.824;5.564;2023-09-19T09:59:20;100894.38;;;16.94;83.14
57990;BME280;58373;51.824;5.564;2023-09-19T10:01:49;100884.88;;;17.02;81.39
57990;BME280;58373;51.824;5.564;2023-09-19T10:04:36;100881.94;;;16.96;81.49
57990;BME280;58373;51.824;5.564;2023-09-19T10:07:02;100882.94;;;17.04;80.08
57990;BME280;58373;51.824;5.564;2023-09-19T10:09:30;100888.16;;;17.12;78.60
57990;BME280;58373;51.824;5.564;2023-09-19T10:12:07;100884.22;;;17.08;79.37
57990;BME280;58373;51.824;5.564;2023-09-19T10:14:37;100891.25;;;17.15;79.27
57990;BME280;58373;51.824;5.564;2023-09-19T10:17:04;100874.06;;;17.21;79.47
57990;BME280;58373;51.824;5.564;2023-09-19T10:19:30;100878.28;;;17.30;79.50
57990;BME280;58373;51.824;5.564;2023-09-19T10:21:59;100884.78;;;17.42;78.94
57990;BME280;58373;51.824;5.564;2023-09-19T10:24:26;100867.56;;;17.56;77.83
57990;BME280;58373;51.824;5.564;2023-09-19T10:26:53;100871.63;;;17.59;78.12
57990;BME280;58373;51.824;5.564;2023-09-19T10:29:19;100861.44;;;17.72;77.12
57990;BME280;58373;51.824;5.564;2023-09-19T10:31:47;100863.03;;;17.81;76.72
57990;BME280;58373;51.824;5.564;2023-09-19T10:34:12;100870.59;;;17.84;76.79
57990;BME280;58373;51.824;5.564;2023-09-19T10:36:39;100872.94;;;18.02;74.12
57990;BME280;58373;51.824;5.564;2023-09-19T10:39:07;100879.41;;;17.83;76.22
57990;BME280;58373;51.824;5.564;2023-09-19T10:41:34;100876.16;;;17.81;75.81
57990;BME280;58373;51.824;5.564;2023-09-19T10:44:02;100856.81;;;17.82;75.42
57990;BME280;58373;51.824;5.564;2023-09-19T10:46:28;100861.72;;;17.85;74.62
57990;BME280;58373;51.824;5.564;2023-09-19T10:48:53;100854.03;;;17.84;75.46
57990;BME280;58373;51.824;5.564;2023-09-19T10:51:24;100859.41;;;17.90;75.81
57990;BME280;58373;51.824;5.564;2023-09-19T10:54:05;100857.41;;;17.92;75.48
57990;BME280;58373;51.824;5.564;2023-09-19T10:56:36;100864.78;;;17.97;75.84
57990;BME280;58373;51.824;5.564;2023-09-19T10:59:09;100855.56;;;18.01;75.12
57990;BME280;58373;51.824;5.564;2023-09-19T11:01:48;100854.88;;;18.07;75.83
57990;BME280;58373;51.824;5.564;2023-09-19T11:04:35;100840.50;;;18.18;75.50
57990;BME280;58373;51.824;5.564;2023-09-19T11:07:07;100836.22;;;18.25;75.03
57990;BME280;58373;51.824;5.564;2023-09-19T11:09:46;100826.97;;;18.29;73.53
57990;BME280;58373;51.824;5.564;2023-09-19T11:12:14;100839.25;;;18.37;73.38
57990;BME280;58373;51.824;5.564;2023-09-19T11:15:06;100832.81;;;18.39;73.88
57990;BME280;58373;51.824;5.564;2023-09-19T11:30:31;100813.53;;;18.32;73.70
57990;BME280;58373;51.824;5.564;2023-09-19T11:46:28;100804.59;;;18.41;72.69
57990;BME280;58373;51.824;5.564;2023-09-19T11:48:54;100791.72;;;18.46;72.37
57990;BME280;58373;51.824;5.564;2023-09-19T11:51:21;100793.66;;;18.52;72.43
57990;BME280;58373;51.824;5.564;2023-09-19T11:53:51;100799.19;;;18.57;71.84
57990;BME280;58373;51.824;5.564;2023-09-19T11:56:20;100795.22;;;18.62;71.94
57990;BME280;58373;51.824;5.564;2023-09-19T11:58:47;100796.16;;;18.69;72.50
57990;BME280;58373;51.824;5.564;2023-09-19T12:01:14;100796.44;;;18.74;71.46
57990;BME280;58373;51.824;5.564;2023-09-19T12:03:45;100785.88;;;18.82;70.16
57990;BME280;58373;51.824;5.564;2023-09-19T12:06:13;100786.22;;;18.79;70.43
57990;BME280;58373;51.824;5.564;2023-09-19T12:08:39;100785.75;;;18.90;70.65
57990;BME280;58373;51.824;5.564;2023-09-19T12:11:07;100792.31;;;18.94;70.99
57990;BME280;58373;51.824;5.564;2023-09-19T12:13:35;100797.47;;;19.02;70.07
57990;BME280;58373;51.824;5.564;2023-09-19T12:16:10;100792.28;;;19.09;69.50
57990;BME280;58373;51.824;5.564;2023-09-19T12:18:36;100803.28;;;19.13;69.38
57990;BME280;58373;51.824;5.564;2023-09-19T12:21:01;100789.31;;;19.27;69.16
57990;BME280;58373;51.824;5.564;2023-09-19T12:23:29;100795.47;;;19.34;68.18
57990;BME280;58373;51.824;5.564;2023-09-19T12:25:55;100796.19;;;19.28;68.77
57990;BME280;58373;51.824;5.564;2023-09-19T12:28:22;100794.94;;;19.24;68.18
57990;BME280;58373;51.824;5.564;2023-09-19T12:30:49;100811.44;;;19.18;67.96
57990;BME280;58373;51.824;5.564;2023-09-19T12:33:18;100798.75;;;19.06;67.84
57990;BME280;58373;51.824;5.564;2023-09-19T12:35:50;100802.28;;;18.99;66.91
57990;BME280;58373;51.824;5.564;2023-09-19T12:38:30;100799.28;;;18.87;67.69
57990;BME280;58373;51.824;5.564;2023-09-19T12:41:01;100792.19;;;18.73;67.94
57990;BME280;58373;51.824;5.564;2023-09-19T12:43:28;100802.56;;;18.66;68.57
57990;BME280;58373;51.824;5.564;2023-09-19T12:45:55;100818.22;;;18.60;68.51
57990;BME280;58373;51.824;5.564;2023-09-19T12:48:24;100806.44;;;18.55;68.59
57990;BME280;58373;51.824;5.564;2023-09-19T12:51:00;100783.78;;;18.54;68.03
57990;BME280;58373;51.824;5.564;2023-09-19T12:53:30;100799.25;;;18.49;68.69
57990;BME280;58373;51.824;5.564;2023-09-19T12:55:58;100797.91;;;18.53;68.07
57990;BME280;58373;51.824;5.564;2023-09-19T12:58:23;100803.53;;;18.50;68.31
57990;BME280;58373;51.824;5.564;2023-09-19T13:00:48;100805.84;;;18.45;68.47
57990;BME280;58373;51.824;5.564;2023-09-19T13:03:17;100792.09;;;18.43;69.21
57990;BME280;58373;51.824;5.564;2023-09-19T13:05:54;100803.19;;;18.53;68.98
57990;BME280;58373;51.824;5.564;2023-09-19T13:08:24;100790.19;;;18.52;68.82
57990;BME280;58373;51.824;5.564;2023-09-19T13:13:35;100781.78;;;18.56;68.16
57990;BME280;58373;51.824;5.564;2023-09-19T13:16:02;100785.50;;;18.47;68.94
57990;BME280;58373;51.824;5.564;2023-09-19T13:18:27;100782.44;;;18.58;68.43
57990;BME280;58373;51.824;5.564;2023-09-19T13:21:07;100795.94;;;18.55;68.11
57990;BME280;58373;51.824;5.564;2023-09-19T13:23:37;100795.00;;;18.48;68.62
57990;BME280;58373;51.824;5.564;2023-09-19T13:26:02;100795.34;;;18.45;68.98
57990;BME280;58373;51.824;5.564;2023-09-19T13:28:30;100798.50;;;18.41;69.11
57990;BME280;58373;51.824;5.564;2023-09-19T13:30:55;100802.31;;;18.38;69.34
57990;BME280;58373;51.824;5.564;2023-09-19T13:33:21;100797.56;;;18.34;69.24
57990;BME280;58373;51.824;5.564;2023-09-19T13:35:46;100794.44;;;18.38;69.62